Tye River, Virginia
Current Conditions -  °F | °C
As of 8:35 PM on Tuesday 21 Oct 2014 (Local Time) from KW13 Reporting Station
Overcast Overcast  
Wind Chill: 52°   Ceiling: 3400
Heat Index: 52°   Visibility: 10mi
Dew Point: 47°   Wind: 6mph
Humidity: 83%   Direction: 340°NNW
Pressure: 29.92"   Gusts: NA
Location:  37.6956°N, 78.9097°W
Report Text: KW13 220035Z AUTO 34005KT 10SM OVC034 11/08 A2992 RMK AO1 T01100082
Loading
Personal Weather Stations






























Interactive Weather Map
Tropical Storm Tracking
New forecast layout! Learn more

10-Day Weather Forecast

Advertisements
Track Severe Weather on mobile